sensor_id;sensor_type;location;lat;lon;timestamp;P1;durP1;ratioP1;P2;durP2;ratioP2
77076;SDS011;66003;52.286;104.306;2023-08-06T00:00:39;15.13;;;10.98;;
77076;SDS011;66003;52.286;104.306;2023-08-06T00:03:05;16.90;;;11.07;;
77076;SDS011;66003;52.286;104.306;2023-08-06T00:05:31;15.68;;;11.40;;
77076;SDS011;66003;52.286;104.306;2023-08-06T00:07:58;15.68;;;11.02;;
77076;SDS011;66003;52.286;104.306;2023-08-06T00:10:24;16.13;;;11.57;;
77076;SDS011;66003;52.286;104.306;2023-08-06T00:12:50;15.82;;;10.75;;
77076;SDS011;66003;52.286;104.306;2023-08-06T00:15:16;16.38;;;11.18;;
77076;SDS011;66003;52.286;104.306;2023-08-06T00:17:42;14.65;;;10.25;;
77076;SDS011;66003;52.286;104.306;2023-08-06T00:20:08;15.73;;;10.70;;
77076;SDS011;66003;52.286;104.306;2023-08-06T00:22:35;14.85;;;10.63;;
77076;SDS011;66003;52.286;104.306;2023-08-06T00:25:03;13.85;;;9.73;;
77076;SDS011;66003;52.286;104.306;2023-08-06T00:27:32;13.45;;;9.55;;
77076;SDS011;66003;52.286;104.306;2023-08-06T00:29:58;13.02;;;8.95;;
77076;SDS011;66003;52.286;104.306;2023-08-06T00:32:25;14.18;;;10.73;;
77076;SDS011;66003;52.286;104.306;2023-08-06T00:34:52;13.07;;;9.63;;
77076;SDS011;66003;52.286;104.306;2023-08-06T00:37:19;19.75;;;9.13;;
77076;SDS011;66003;52.286;104.306;2023-08-06T00:39:45;13.57;;;9.60;;
77076;SDS011;66003;52.286;104.306;2023-08-06T00:42:12;18.88;;;9.45;;
77076;SDS011;66003;52.286;104.306;2023-08-06T00:44:39;11.90;;;8.88;;
77076;SDS011;66003;52.286;104.306;2023-08-06T00:47:08;13.55;;;8.95;;
77076;SDS011;66003;52.286;104.306;2023-08-06T00:49:35;12.52;;;9.63;;
77076;SDS011;66003;52.286;104.306;2023-08-06T00:52:03;10.52;;;7.95;;
77076;SDS011;66003;52.286;104.306;2023-08-06T00:54:31;14.60;;;9.00;;
77076;SDS011;66003;52.286;104.306;2023-08-06T00:56:57;11.95;;;8.52;;
77076;SDS011;66003;52.286;104.306;2023-08-06T00:59:25;12.90;;;9.98;;
77076;SDS011;66003;52.286;104.306;2023-08-06T01:01:51;13.52;;;10.32;;
77076;SDS011;66003;52.286;104.306;2023-08-06T01:04:18;15.27;;;9.93;;
77076;SDS011;66003;52.286;104.306;2023-08-06T01:06:48;13.98;;;9.75;;
77076;SDS011;66003;52.286;104.306;2023-08-06T01:14:57;12.52;;;8.93;;
77076;SDS011;66003;52.286;104.306;2023-08-06T01:17:31;12.65;;;9.70;;
77076;SDS011;66003;52.286;104.306;2023-08-06T01:19:58;11.68;;;8.65;;
77076;SDS011;66003;52.286;104.306;2023-08-06T01:22:24;11.00;;;8.80;;
77076;SDS011;66003;52.286;104.306;2023-08-06T01:24:50;12.02;;;8.70;;
77076;SDS011;66003;52.286;104.306;2023-08-06T01:27:22;12.70;;;9.40;;
77076;SDS011;66003;52.286;104.306;2023-08-06T01:30:03;13.80;;;9.95;;
77076;SDS011;66003;52.286;104.306;2023-08-06T01:32:38;15.45;;;10.40;;
77076;SDS011;66003;52.286;104.306;2023-08-06T01:35:06;13.85;;;10.05;;
77076;SDS011;66003;52.286;104.306;2023-08-06T01:37:35;14.48;;;10.27;;
77076;SDS011;66003;52.286;104.306;2023-08-06T01:40:20;16.10;;;10.63;;
77076;SDS011;66003;52.286;104.306;2023-08-06T01:42:46;18.85;;;9.75;;
77076;SDS011;66003;52.286;104.306;2023-08-06T01:45:13;15.43;;;10.23;;
77076;SDS011;66003;52.286;104.306;2023-08-06T01:47:39;15.88;;;9.80;;
77076;SDS011;66003;52.286;104.306;2023-08-06T01:50:06;13.88;;;9.68;;
77076;SDS011;66003;52.286;104.306;2023-08-06T01:52:32;15.68;;;10.90;;
77076;SDS011;66003;52.286;104.306;2023-08-06T01:54:58;15.80;;;10.38;;
77076;SDS011;66003;52.286;104.306;2023-08-06T01:57:24;15.25;;;10.45;;
77076;SDS011;66003;52.286;104.306;2023-08-06T01:59:50;17.92;;;10.68;;
77076;SDS011;66003;52.286;104.306;2023-08-06T02:02:17;14.88;;;9.98;;
77076;SDS011;66003;52.286;104.306;2023-08-06T02:04:43;18.27;;;12.07;;
77076;SDS011;66003;52.286;104.306;2023-08-06T02:07:09;17.42;;;11.07;;
77076;SDS011;66003;52.286;104.306;2023-08-06T02:09:35;14.95;;;10.30;;
77076;SDS011;66003;52.286;104.306;2023-08-06T02:12:01;14.85;;;10.85;;
77076;SDS011;66003;52.286;104.306;2023-08-06T02:14:28;13.80;;;11.13;;
77076;SDS011;66003;52.286;104.306;2023-08-06T02:16:54;14.82;;;9.38;;
77076;SDS011;66003;52.286;104.306;2023-08-06T02:19:21;14.20;;;10.57;;
77076;SDS011;66003;52.286;104.306;2023-08-06T02:21:47;15.88;;;10.75;;
77076;SDS011;66003;52.286;104.306;2023-08-06T02:24:13;16.90;;;11.32;;
77076;SDS011;66003;52.286;104.306;2023-08-06T02:26:39;16.48;;;11.32;;
77076;SDS011;66003;52.286;104.306;2023-08-06T02:29:05;16.02;;;9.77;;
77076;SDS011;66003;52.286;104.306;2023-08-06T02:31:31;18.95;;;11.20;;
77076;SDS011;66003;52.286;104.306;2023-08-06T02:33:58;19.02;;;12.10;;
77076;SDS011;66003;52.286;104.306;2023-08-06T02:36:25;17.50;;;11.35;;
77076;SDS011;66003;52.286;104.306;2023-08-06T02:38:55;18.13;;;11.07;;
77076;SDS011;66003;52.286;104.306;2023-08-06T02:41:21;17.48;;;10.88;;
77076;SDS011;66003;52.286;104.306;2023-08-06T02:43:47;19.40;;;11.35;;
77076;SDS011;66003;52.286;104.306;2023-08-06T02:46:13;18.80;;;11.90;;
77076;SDS011;66003;52.286;104.306;2023-08-06T02:48:40;21.20;;;12.98;;
77076;SDS011;66003;52.286;104.306;2023-08-06T02:51:06;18.40;;;11.73;;
77076;SDS011;66003;52.286;104.306;2023-08-06T02:53:33;16.58;;;9.98;;
77076;SDS011;66003;52.286;104.306;2023-08-06T02:55:59;18.60;;;12.00;;
77076;SDS011;66003;52.286;104.306;2023-08-06T02:58:25;16.67;;;11.48;;
77076;SDS011;66003;52.286;104.306;2023-08-06T03:01:01;16.33;;;12.00;;
77076;SDS011;66003;52.286;104.306;2023-08-06T03:03:29;19.42;;;11.25;;
77076;SDS011;66003;52.286;104.306;2023-08-06T03:05:56;18.60;;;11.95;;
77076;SDS011;66003;52.286;104.306;2023-08-06T03:08:22;22.45;;;13.52;;
77076;SDS011;66003;52.286;104.306;2023-08-06T03:10:49;21.70;;;12.20;;
77076;SDS011;66003;52.286;104.306;2023-08-06T03:13:16;18.90;;;12.93;;
77076;SDS011;66003;52.286;104.306;2023-08-06T03:15:43;25.77;;;13.35;;
77076;SDS011;66003;52.286;104.306;2023-08-06T03:18:09;18.08;;;11.82;;
77076;SDS011;66003;52.286;104.306;2023-08-06T03:20:35;18.50;;;11.63;;
77076;SDS011;66003;52.286;104.306;2023-08-06T03:23:02;19.85;;;11.48;;
77076;SDS011;66003;52.286;104.306;2023-08-06T03:25:28;20.58;;;12.60;;
77076;SDS011;66003;52.286;104.306;2023-08-06T03:27:55;20.63;;;12.48;;
77076;SDS011;66003;52.286;104.306;2023-08-06T03:30:21;19.27;;;12.27;;
77076;SDS011;66003;52.286;104.306;2023-08-06T03:32:48;24.13;;;13.95;;
77076;SDS011;66003;52.286;104.306;2023-08-06T03:35:14;25.30;;;14.90;;
77076;SDS011;66003;52.286;104.306;2023-08-06T03:37:40;21.15;;;13.00;;
77076;SDS011;66003;52.286;104.306;2023-08-06T03:40:06;22.65;;;12.98;;
77076;SDS011;66003;52.286;104.306;2023-08-06T03:42:33;17.55;;;11.80;;
77076;SDS011;66003;52.286;104.306;2023-08-06T03:44:59;22.55;;;13.07;;
77076;SDS011;66003;52.286;104.306;2023-08-06T03:47:25;20.73;;;12.70;;
77076;SDS011;66003;52.286;104.306;2023-08-06T03:49:51;23.10;;;14.57;;
77076;SDS011;66003;52.286;104.306;2023-08-06T03:52:17;20.48;;;11.95;;
77076;SDS011;66003;52.286;104.306;2023-08-06T03:54:43;20.92;;;13.35;;
77076;SDS011;66003;52.286;104.306;2023-08-06T03:57:09;22.35;;;13.93;;
77076;SDS011;66003;52.286;104.306;2023-08-06T03:59:36;19.17;;;13.55;;
77076;SDS011;66003;52.286;104.306;2023-08-06T04:02:02;20.98;;;14.15;;
77076;SDS011;66003;52.286;104.306;2023-08-06T04:04:28;20.65;;;13.23;;
77076;SDS011;66003;52.286;104.306;2023-08-06T04:06:54;21.90;;;14.40;;
77076;SDS011;66003;52.286;104.306;2023-08-06T04:09:21;22.58;;;13.63;;
77076;SDS011;66003;52.286;104.306;2023-08-06T04:11:47;18.75;;;14.05;;
77076;SDS011;66003;52.286;104.306;2023-08-06T04:14:13;21.02;;;13.85;;
77076;SDS011;66003;52.286;104.306;2023-08-06T04:16:39;20.00;;;12.98;;
77076;SDS011;66003;52.286;104.306;2023-08-06T04:19:05;20.98;;;13.82;;
77076;SDS011;66003;52.286;104.306;2023-08-06T04:21:31;19.30;;;11.95;;
77076;SDS011;66003;52.286;104.306;2023-08-06T04:23:57;23.27;;;14.73;;
77076;SDS011;66003;52.286;104.306;2023-08-06T04:26:23;21.95;;;15.07;;
77076;SDS011;66003;52.286;104.306;2023-08-06T04:28:50;22.63;;;15.77;;
77076;SDS011;66003;52.286;104.306;2023-08-06T04:31:16;27.98;;;14.05;;
77076;SDS011;66003;52.286;104.306;2023-08-06T04:33:42;22.73;;;13.93;;
77076;SDS011;66003;52.286;104.306;2023-08-06T04:36:08;20.10;;;13.25;;
77076;SDS011;66003;52.286;104.306;2023-08-06T04:38:34;23.73;;;14.52;;
77076;SDS011;66003;52.286;104.306;2023-08-06T04:41:02;21.45;;;13.45;;
77076;SDS011;66003;52.286;104.306;2023-08-06T04:43:29;19.58;;;12.70;;
77076;SDS011;66003;52.286;104.306;2023-08-06T04:45:55;18.40;;;12.27;;
77076;SDS011;66003;52.286;104.306;2023-08-06T04:48:22;17.67;;;13.25;;
77076;SDS011;66003;52.286;104.306;2023-08-06T04:50:48;19.35;;;13.40;;
77076;SDS011;66003;52.286;104.306;2023-08-06T04:53:16;20.00;;;12.88;;
77076;SDS011;66003;52.286;104.306;2023-08-06T04:55:42;19.35;;;12.57;;
77076;SDS011;66003;52.286;104.306;2023-08-06T04:58:09;16.40;;;11.45;;
77076;SDS011;66003;52.286;104.306;2023-08-06T05:00:36;15.70;;;11.02;;
77076;SDS011;66003;52.286;104.306;2023-08-06T05:03:02;18.27;;;12.30;;
77076;SDS011;66003;52.286;104.306;2023-08-06T05:05:28;17.88;;;11.25;;
77076;SDS011;66003;52.286;104.306;2023-08-06T05:07:55;16.52;;;11.93;;
77076;SDS011;66003;52.286;104.306;2023-08-06T05:10:25;18.58;;;12.00;;
77076;SDS011;66003;52.286;104.306;2023-08-06T05:12:52;17.08;;;10.20;;
77076;SDS011;66003;52.286;104.306;2023-08-06T05:15:19;18.15;;;9.68;;
77076;SDS011;66003;52.286;104.306;2023-08-06T05:17:45;18.77;;;11.02;;
77076;SDS011;66003;52.286;104.306;2023-08-06T05:20:11;18.27;;;12.30;;
77076;SDS011;66003;52.286;104.306;2023-08-06T05:22:37;20.80;;;12.63;;
77076;SDS011;66003;52.286;104.306;2023-08-06T05:25:04;16.50;;;10.95;;
77076;SDS011;66003;52.286;104.306;2023-08-06T05:27:32;18.90;;;11.80;;
77076;SDS011;66003;52.286;104.306;2023-08-06T05:29:58;15.60;;;10.50;;
77076;SDS011;66003;52.286;104.306;2023-08-06T05:32:24;15.43;;;9.90;;
77076;SDS011;66003;52.286;104.306;2023-08-06T05:34:50;14.90;;;11.57;;
77076;SDS011;66003;52.286;104.306;2023-08-06T05:37:16;18.77;;;11.82;;
77076;SDS011;66003;52.286;104.306;2023-08-06T05:39:42;17.13;;;10.95;;
77076;SDS011;66003;52.286;104.306;2023-08-06T05:42:08;15.73;;;10.20;;
77076;SDS011;66003;52.286;104.306;2023-08-06T05:44:34;15.57;;;10.82;;
77076;SDS011;66003;52.286;104.306;2023-08-06T05:47:00;17.25;;;10.77;;
77076;SDS011;66003;52.286;104.306;2023-08-06T05:49:26;17.67;;;10.95;;
77076;SDS011;66003;52.286;104.306;2023-08-06T05:51:53;16.45;;;10.95;;
77076;SDS011;66003;52.286;104.306;2023-08-06T05:54:19;16.83;;;11.45;;
77076;SDS011;66003;52.286;104.306;2023-08-06T05:56:45;16.90;;;11.75;;
77076;SDS011;66003;52.286;104.306;2023-08-06T05:59:11;16.02;;;11.80;;
77076;SDS011;66003;52.286;104.306;2023-08-06T06:01:37;15.85;;;10.63;;
77076;SDS011;66003;52.286;104.306;2023-08-06T06:04:03;17.45;;;10.07;;
77076;SDS011;66003;52.286;104.306;2023-08-06T06:06:29;15.20;;;11.50;;
77076;SDS011;66003;52.286;104.306;2023-08-06T06:08:56;17.27;;;12.75;;
77076;SDS011;66003;52.286;104.306;2023-08-06T06:11:22;16.88;;;11.88;;
77076;SDS011;66003;52.286;104.306;2023-08-06T06:13:51;18.17;;;11.35;;
77076;SDS011;66003;52.286;104.306;2023-08-06T06:16:17;16.67;;;11.95;;
77076;SDS011;66003;52.286;104.306;2023-08-06T06:18:43;17.17;;;11.85;;
77076;SDS011;66003;52.286;104.306;2023-08-06T06:21:10;20.15;;;12.40;;
77076;SDS011;66003;52.286;104.306;2023-08-06T06:23:36;16.10;;;12.30;;
77076;SDS011;66003;52.286;104.306;2023-08-06T06:26:02;17.77;;;12.88;;
77076;SDS011;66003;52.286;104.306;2023-08-06T06:28:29;16.67;;;11.05;;
77076;SDS011;66003;52.286;104.306;2023-08-06T06:30:59;20.10;;;13.05;;
77076;SDS011;66003;52.286;104.306;2023-08-06T06:33:29;18.77;;;11.77;;
77076;SDS011;66003;52.286;104.306;2023-08-06T06:35:55;16.65;;;12.10;;
77076;SDS011;66003;52.286;104.306;2023-08-06T06:38:21;16.98;;;11.63;;
77076;SDS011;66003;52.286;104.306;2023-08-06T06:40:54;20.48;;;11.93;;
77076;SDS011;66003;52.286;104.306;2023-08-06T06:43:21;15.68;;;11.40;;
77076;SDS011;66003;52.286;104.306;2023-08-06T06:45:51;17.58;;;11.88;;
77076;SDS011;66003;52.286;104.306;2023-08-06T06:48:19;16.25;;;12.32;;
77076;SDS011;66003;52.286;104.306;2023-08-06T06:50:48;16.67;;;12.55;;
77076;SDS011;66003;52.286;104.306;2023-08-06T06:53:15;16.05;;;11.52;;
77076;SDS011;66003;52.286;104.306;2023-08-06T06:55:41;16.17;;;11.93;;
77076;SDS011;66003;52.286;104.306;2023-08-06T06:58:07;17.88;;;11.95;;
77076;SDS011;66003;52.286;104.306;2023-08-06T07:00:35;18.90;;;12.70;;
77076;SDS011;66003;52.286;104.306;2023-08-06T07:03:02;17.17;;;11.45;;
77076;SDS011;66003;52.286;104.306;2023-08-06T07:05:29;17.65;;;11.38;;
77076;SDS011;66003;52.286;104.306;2023-08-06T07:07:55;15.52;;;10.30;;
77076;SDS011;66003;52.286;104.306;2023-08-06T07:10:21;17.52;;;10.65;;
77076;SDS011;66003;52.286;104.306;2023-08-06T07:12:47;16.65;;;11.57;;
77076;SDS011;66003;52.286;104.306;2023-08-06T07:15:13;15.30;;;9.88;;
77076;SDS011;66003;52.286;104.306;2023-08-06T07:17:39;14.68;;;10.40;;
77076;SDS011;66003;52.286;104.306;2023-08-06T07:20:06;16.70;;;11.52;;
77076;SDS011;66003;52.286;104.306;2023-08-06T07:22:32;17.05;;;11.32;;
77076;SDS011;66003;52.286;104.306;2023-08-06T07:24:59;17.05;;;10.75;;
77076;SDS011;66003;52.286;104.306;2023-08-06T07:27:25;15.32;;;10.48;;
77076;SDS011;66003;52.286;104.306;2023-08-06T07:29:51;15.18;;;9.32;;
77076;SDS011;66003;52.286;104.306;2023-08-06T07:32:18;15.55;;;9.98;;
77076;SDS011;66003;52.286;104.306;2023-08-06T07:34:44;17.83;;;11.63;;
77076;SDS011;66003;52.286;104.306;2023-08-06T07:37:10;15.98;;;10.55;;
77076;SDS011;66003;52.286;104.306;2023-08-06T07:39:36;17.67;;;12.07;;
77076;SDS011;66003;52.286;104.306;2023-08-06T07:42:05;15.38;;;11.98;;
77076;SDS011;66003;52.286;104.306;2023-08-06T07:44:32;18.17;;;10.05;;
77076;SDS011;66003;52.286;104.306;2023-08-06T07:46:58;16.27;;;10.57;;
77076;SDS011;66003;52.286;104.306;2023-08-06T07:49:24;17.38;;;11.90;;
77076;SDS011;66003;52.286;104.306;2023-08-06T07:51:51;14.85;;;11.40;;
77076;SDS011;66003;52.286;104.306;2023-08-06T07:54:18;17.08;;;11.25;;
77076;SDS011;66003;52.286;104.306;2023-08-06T07:56:44;18.67;;;12.07;;
77076;SDS011;66003;52.286;104.306;2023-08-06T07:59:11;15.48;;;11.65;;
77076;SDS011;66003;52.286;104.306;2023-08-06T08:01:37;16.48;;;10.95;;
77076;SDS011;66003;52.286;104.306;2023-08-06T08:04:03;15.35;;;11.15;;
77076;SDS011;66003;52.286;104.306;2023-08-06T08:06:30;17.63;;;12.02;;
77076;SDS011;66003;52.286;104.306;2023-08-06T08:08:57;21.77;;;12.70;;
77076;SDS011;66003;52.286;104.306;2023-08-06T08:11:23;18.83;;;12.85;;
77076;SDS011;66003;52.286;104.306;2023-08-06T08:13:49;18.95;;;12.70;;
77076;SDS011;66003;52.286;104.306;2023-08-06T08:16:15;17.33;;;12.50;;
77076;SDS011;66003;52.286;104.306;2023-08-06T08:18:41;22.20;;;12.35;;
77076;SDS011;66003;52.286;104.306;2023-08-06T08:21:08;16.35;;;11.57;;
77076;SDS011;66003;52.286;104.306;2023-08-06T08:23:34;15.70;;;11.38;;
77076;SDS011;66003;52.286;104.306;2023-08-06T08:26:00;16.88;;;11.60;;
77076;SDS011;66003;52.286;104.306;2023-08-06T08:28:27;18.58;;;11.55;;
77076;SDS011;66003;52.286;104.306;2023-08-06T08:30:53;23.40;;;11.75;;
77076;SDS011;66003;52.286;104.306;2023-08-06T08:33:22;18.15;;;11.35;;
77076;SDS011;66003;52.286;104.306;2023-08-06T08:35:48;15.30;;;10.90;;
77076;SDS011;66003;52.286;104.306;2023-08-06T08:38:14;17.55;;;11.52;;
77076;SDS011;66003;52.286;104.306;2023-08-06T08:40:43;17.45;;;11.82;;
77076;SDS011;66003;52.286;104.306;2023-08-06T08:43:14;17.23;;;11.65;;
77076;SDS011;66003;52.286;104.306;2023-08-06T08:45:42;14.52;;;10.77;;
77076;SDS011;66003;52.286;104.306;2023-08-06T08:48:10;14.35;;;9.82;;
77076;SDS011;66003;52.286;104.306;2023-08-06T08:50:39;14.57;;;11.13;;
77076;SDS011;66003;52.286;104.306;2023-08-06T08:53:06;15.27;;;10.95;;
77076;SDS011;66003;52.286;104.306;2023-08-06T08:55:34;16.85;;;11.00;;
77076;SDS011;66003;52.286;104.306;2023-08-06T08:58:01;16.10;;;11.02;;
77076;SDS011;66003;52.286;104.306;2023-08-06T09:00:27;18.80;;;11.10;;
77076;SDS011;66003;52.286;104.306;2023-08-06T09:02:54;19.25;;;11.77;;
77076;SDS011;66003;52.286;104.306;2023-08-06T09:05:21;16.77;;;11.57;;
